createdAt,value
2022-10-25T00:00:02.115Z,5.3
2022-10-25T00:02:34.608Z,3.9
2022-10-25T00:05:07.080Z,5.5
2022-10-25T00:07:39.546Z,5
2022-10-25T00:08:55.781Z,4.3
2022-10-25T00:10:11.053Z,5.4
2022-10-25T00:11:27.279Z,4.1
2022-10-25T00:12:43.529Z,4.3
2022-10-25T00:13:59.765Z,4.7
2022-10-25T00:15:16.002Z,3.2
2022-10-25T00:16:32.246Z,4.7
2022-10-25T00:20:20.960Z,3.3
2022-10-25T00:21:37.203Z,3.2
2022-10-25T00:22:53.431Z,4.9
2022-10-25T00:24:09.683Z,3.1
2022-10-25T00:25:25.934Z,3.9
2022-10-25T00:26:42.163Z,4.5
2022-10-25T00:27:58.409Z,4.4
2022-10-25T00:29:14.639Z,3.5
2022-10-25T00:30:29.888Z,4.7
2022-10-25T00:31:46.120Z,2.8
2022-10-25T00:33:02.363Z,2.2
2022-10-25T00:34:18.606Z,5.4
2022-10-25T00:35:34.865Z,3.3
2022-10-25T00:36:51.078Z,7.6
2022-10-25T00:38:07.335Z,4.4
2022-10-25T00:39:23.559Z,5.3
2022-10-25T00:44:28.532Z,3.8
2022-10-25T00:45:44.760Z,2.6
2022-10-25T00:47:00.018Z,5.3
2022-10-25T00:48:16.251Z,3.4
2022-10-25T00:49:32.498Z,5.3
2022-10-25T00:50:48.739Z,4.3
2022-10-25T00:52:04.992Z,3
2022-10-25T00:53:21.227Z,7.4
2022-10-25T00:55:53.700Z,3.4
2022-10-25T00:59:42.414Z,6.2
2022-10-25T01:00:58.668Z,6.1
2022-10-25T01:03:31.140Z,4
2022-10-25T01:06:03.618Z,4.1
2022-10-25T01:07:19.853Z,3.5
2022-10-25T01:08:36.091Z,4.3
2022-10-25T01:11:08.574Z,4.6
2022-10-25T01:14:57.285Z,2.5
2022-10-25T01:16:13.534Z,5.7
2022-10-25T01:18:46.015Z,6.2
2022-10-25T01:21:18.481Z,5.2
2022-10-25T01:26:23.452Z,3.8
2022-10-25T01:28:55.925Z,3.6
2022-10-25T01:30:12.168Z,6.3
2022-10-25T01:31:28.416Z,6.6
2022-10-25T01:35:17.261Z,2.9
2022-10-25T01:36:33.559Z,4.2
2022-10-25T01:40:22.451Z,4
2022-10-25T01:41:38.764Z,5.6
2022-10-25T01:44:11.353Z,3.8
2022-10-25T01:46:43.969Z,4.5
2022-10-25T01:48:00.262Z,3.8
2022-10-25T01:50:32.987Z,4.7
2022-10-25T01:51:48.512Z,4.1
2022-10-25T01:53:04.910Z,4.6
2022-10-25T01:55:37.761Z,7
2022-10-25T01:56:54.171Z,3
2022-10-25T01:58:10.583Z,7.1
2022-10-25T02:00:43.412Z,4.4
2022-10-25T02:01:59.839Z,2.7
2022-10-25T02:05:49.070Z,4.3
2022-10-25T02:07:05.485Z,6.2
2022-10-25T02:08:21.894Z,3.9
2022-10-25T02:10:54.740Z,3.6
2022-10-25T02:12:11.137Z,3.7
2022-10-25T02:16:00.394Z,3.5
2022-10-25T02:17:16.798Z,3.6
2022-10-25T02:21:06.026Z,6.3
2022-10-25T02:22:22.458Z,6.6
2022-10-25T02:26:11.707Z,10.7
2022-10-25T02:27:27.245Z,3.8
2022-10-25T02:28:43.642Z,3
2022-10-25T02:31:16.483Z,4.3
2022-10-25T02:32:32.898Z,4.3
2022-10-25T02:36:22.146Z,3.4
2022-10-25T02:37:37.656Z,4.5
2022-10-25T02:38:54.081Z,4.7
2022-10-25T02:41:26.925Z,4.1
2022-10-25T02:42:43.325Z,3.6
2022-10-25T02:43:59.738Z,5.9
2022-10-25T02:47:48.983Z,4.2
2022-10-25T02:49:05.391Z,5.4
2022-10-25T02:50:21.807Z,6.5
2022-10-25T02:51:38.224Z,8.3
2022-10-25T02:52:54.634Z,7.2
2022-10-25T02:55:27.465Z,4.1
2022-10-25T02:56:43.881Z,4.3
2022-10-25T02:58:00.298Z,4.8
2022-10-25T03:01:49.541Z,4.5
2022-10-25T03:03:05.957Z,4.1
2022-10-25T03:04:22.372Z,6.4
2022-10-25T03:05:38.794Z,7.3
2022-10-25T03:06:55.189Z,5
2022-10-25T03:08:11.609Z,4.6
2022-10-25T03:09:28.016Z,3.4
2022-10-25T03:10:44.443Z,4.4
2022-10-25T03:12:00.851Z,4.8
2022-10-25T03:13:17.273Z,4.4
2022-10-25T03:17:06.513Z,5.2
2022-10-25T03:18:22.918Z,4.5
2022-10-25T03:19:39.328Z,5.3
2022-10-25T03:22:12.148Z,4.4
2022-10-25T03:23:28.594Z,5.2
2022-10-25T03:26:01.834Z,5.4
2022-10-25T03:27:17.712Z,3.7
2022-10-25T03:28:34.340Z,5.6
2022-10-25T03:31:07.571Z,3.8
2022-10-25T03:33:40.828Z,7.2
2022-10-25T03:34:57.437Z,7
2022-10-25T03:37:30.663Z,3.9
2022-10-25T03:38:47.345Z,4.2
2022-10-25T03:40:04.020Z,5
2022-10-25T03:43:54.031Z,4.1
2022-10-25T03:45:10.707Z,5.9
2022-10-25T03:46:26.665Z,3.7
2022-10-25T03:47:43.352Z,5.6
2022-10-25T03:49:00.005Z,5
2022-10-25T03:50:16.680Z,3.6
2022-10-25T03:52:50.056Z,5.5
2022-10-25T03:55:23.397Z,9.5
2022-10-25T03:56:40.073Z,3.2
2022-10-25T03:57:56.750Z,6.6
2022-10-25T03:59:13.413Z,6.4
2022-10-25T04:00:30.092Z,4.4
2022-10-25T04:01:46.748Z,4.2
2022-10-25T04:04:20.108Z,6.2
2022-10-25T04:06:52.727Z,6.5
2022-10-25T04:08:09.391Z,3.7
2022-10-25T04:10:42.742Z,3.7
2022-10-25T04:13:16.095Z,7.2
2022-10-25T04:14:32.794Z,8.6
2022-10-25T04:15:49.465Z,6.2
2022-10-25T04:18:22.795Z,4
2022-10-25T04:19:39.493Z,4.5
2022-10-25T04:20:56.156Z,3.7
2022-10-25T04:22:12.815Z,5.7
2022-10-25T04:23:28.771Z,4.3
2022-10-25T04:24:44.370Z,2.8
2022-10-25T04:25:59.685Z,3.4
2022-10-25T04:27:15.970Z,5.4
2022-10-25T04:28:32.279Z,2.6
2022-10-25T04:29:48.565Z,3.8
2022-10-25T04:31:04.853Z,3.8
2022-10-25T04:32:21.152Z,3.4
2022-10-25T04:33:37.437Z,4
2022-10-25T04:34:53.742Z,5.2
2022-10-25T04:36:10.032Z,3.3
2022-10-25T04:37:26.334Z,2.6
2022-10-25T04:38:41.651Z,3.5
2022-10-25T04:39:56.942Z,3.3
2022-10-25T04:41:13.237Z,3.3
2022-10-25T04:42:29.539Z,3.5
2022-10-25T04:43:45.841Z,7.1
2022-10-25T04:45:02.138Z,5.4
2022-10-25T04:46:18.424Z,2.7
2022-10-25T04:47:34.715Z,5.4
2022-10-25T04:48:51.011Z,5.1
2022-10-25T04:50:07.308Z,5.7
2022-10-25T04:51:23.599Z,2.9
2022-10-25T04:52:38.908Z,3.9
2022-10-25T04:53:54.217Z,3
2022-10-25T04:55:10.525Z,5.8
2022-10-25T04:56:26.806Z,6.7
2022-10-25T04:57:43.114Z,5.3
2022-10-25T04:58:59.412Z,3.9
2022-10-25T05:00:15.688Z,3.1
2022-10-25T05:01:31.990Z,7.9
2022-10-25T05:02:48.280Z,3.8
2022-10-25T05:04:04.583Z,4.9
2022-10-25T05:05:20.864Z,4.9
2022-10-25T05:06:37.170Z,2.7
2022-10-25T05:07:53.470Z,3.9
2022-10-25T05:09:09.747Z,4.4
2022-10-25T05:10:25.062Z,5.4
2022-10-25T05:11:41.364Z,3
2022-10-25T05:12:57.653Z,4.7
2022-10-25T05:14:13.937Z,4.1
2022-10-25T05:15:30.237Z,4.5
2022-10-25T05:16:46.539Z,4.2
2022-10-25T05:18:02.824Z,4.7
2022-10-25T05:19:18.147Z,4.6
2022-10-25T05:20:33.455Z,5.4
2022-10-25T05:21:49.747Z,5.2
2022-10-25T05:23:06.036Z,4.4
2022-10-25T05:24:22.345Z,4.6
2022-10-25T05:25:38.635Z,3.4
2022-10-25T05:26:54.928Z,5.7
2022-10-25T05:28:11.227Z,4.9
2022-10-25T05:29:27.518Z,5.5
2022-10-25T05:30:43.802Z,3.2
2022-10-25T05:32:00.097Z,4.2
2022-10-25T05:33:16.387Z,4.2
2022-10-25T05:34:32.691Z,6.4
2022-10-25T05:35:48.982Z,2.6
2022-10-25T05:37:04.296Z,3.3
2022-10-25T05:38:20.594Z,3.2
2022-10-25T05:39:36.888Z,4.1
2022-10-25T05:40:53.171Z,3.6
2022-10-25T05:42:09.484Z,2.3
2022-10-25T05:43:25.759Z,6.6
2022-10-25T05:44:42.053Z,3.3
2022-10-25T05:45:57.382Z,5.2
2022-10-25T05:47:12.678Z,3.9
2022-10-25T05:48:28.000Z,4.5
2022-10-25T05:49:43.316Z,1.9
2022-10-25T05:50:59.608Z,4.7
2022-10-25T05:52:15.901Z,2.2
2022-10-25T05:53:32.207Z,3.5
2022-10-25T05:54:48.498Z,7.5
2022-10-25T05:56:04.785Z,3.5
2022-10-25T05:57:21.083Z,3.1
2022-10-25T05:58:37.368Z,3.3
2022-10-25T05:59:53.657Z,8.5
2022-10-25T06:01:09.958Z,3.9
2022-10-25T06:02:26.244Z,3
2022-10-25T06:03:42.553Z,5.4
2022-10-25T06:04:58.858Z,3.3
2022-10-25T06:06:14.166Z,4.8
2022-10-25T06:07:30.445Z,6.7
2022-10-25T06:08:46.748Z,3.7
2022-10-25T06:10:03.044Z,4.5
2022-10-25T06:11:19.323Z,5.3
2022-10-25T06:12:35.616Z,5.2
2022-10-25T06:13:51.914Z,6
2022-10-25T06:15:07.233Z,5.9
2022-10-25T06:16:22.540Z,4.9
2022-10-25T06:17:38.851Z,4.1
2022-10-25T06:18:55.131Z,4.1
2022-10-25T06:20:11.432Z,6.4
2022-10-25T06:21:27.721Z,3.8
2022-10-25T06:22:44.029Z,4.1
2022-10-25T06:24:00.305Z,3.6
2022-10-25T06:25:16.605Z,3.4
2022-10-25T06:26:32.891Z,2.7
2022-10-25T06:27:49.188Z,2.4
2022-10-25T06:29:05.495Z,2.6
2022-10-25T06:30:21.773Z,3.9
2022-10-25T06:31:38.076Z,4
2022-10-25T06:32:53.379Z,2.1
2022-10-25T06:34:09.675Z,4.2
2022-10-25T06:35:25.974Z,5
2022-10-25T06:36:42.256Z,4.4
2022-10-25T06:37:58.568Z,3.1
2022-10-25T06:39:14.862Z,3
2022-10-25T06:40:31.153Z,4.7
2022-10-25T06:41:46.458Z,2.8
2022-10-25T06:43:01.779Z,4.1
2022-10-25T06:44:18.076Z,3.7
2022-10-25T06:45:34.378Z,2.8
2022-10-25T06:46:50.649Z,4.8
2022-10-25T06:48:06.955Z,3.9
2022-10-25T06:49:23.241Z,5.3
2022-10-25T06:50:39.543Z,2.1
2022-10-25T06:51:55.825Z,3.8
2022-10-25T06:53:11.143Z,2.1
2022-10-25T06:54:27.434Z,3.5
2022-10-25T06:55:43.744Z,3.5
2022-10-25T06:57:00.039Z,5.1
2022-10-25T06:58:16.327Z,2.8
2022-10-25T06:59:32.627Z,2.4
2022-10-25T07:00:48.849Z,2.5
2022-10-25T07:02:05.098Z,2.7
2022-10-25T07:03:21.326Z,3.3
2022-10-25T07:04:37.580Z,3.9
2022-10-25T07:05:53.822Z,5.1
2022-10-25T07:07:10.051Z,1.8
2022-10-25T07:08:25.316Z,2.3
2022-10-25T07:09:40.562Z,2.5
2022-10-25T07:10:55.823Z,2
2022-10-25T07:12:11.084Z,2.6
2022-10-25T07:13:26.359Z,2.7
2022-10-25T07:14:41.613Z,3.5
2022-10-25T07:15:57.854Z,4
2022-10-25T07:17:14.092Z,1.6
2022-10-25T07:18:30.319Z,3.3
2022-10-25T07:19:46.554Z,2
2022-10-25T07:21:02.806Z,2.1
2022-10-25T07:22:19.034Z,2.5
2022-10-25T07:23:35.287Z,4.5
2022-10-25T07:24:51.515Z,3.9
2022-10-25T07:26:07.765Z,3.2
2022-10-25T07:27:24.007Z,2.5
2022-10-25T07:28:40.235Z,3.1
2022-10-25T07:29:56.475Z,3.7
2022-10-25T07:31:11.725Z,1.5
2022-10-25T07:32:27.975Z,2.5
2022-10-25T07:33:44.206Z,2.6
2022-10-25T07:35:00.446Z,2.3
2022-10-25T07:36:16.685Z,4.7
2022-10-25T07:37:32.924Z,2
2022-10-25T07:38:48.192Z,1.2
2022-10-25T07:40:03.445Z,3
2022-10-25T07:41:19.674Z,2.7
2022-10-25T07:42:35.921Z,4.1
2022-10-25T07:43:52.170Z,1.3
2022-10-25T07:45:08.409Z,2.7
2022-10-25T07:46:24.637Z,4
2022-10-25T07:47:40.873Z,4.1
2022-10-25T07:48:57.115Z,1.9
2022-10-25T07:50:13.366Z,1.8
2022-10-25T07:51:29.608Z,3.7
2022-10-25T07:52:45.831Z,1.7
2022-10-25T07:54:02.071Z,2.8
2022-10-25T07:55:18.322Z,2.8
2022-10-25T07:56:33.568Z,3.1
2022-10-25T07:57:49.804Z,7.3
2022-10-25T07:59:06.058Z,1.6
2022-10-25T08:00:22.289Z,5.7
2022-10-25T08:01:38.545Z,3.2
2022-10-25T08:02:54.778Z,3.5
2022-10-25T08:04:11.017Z,5.4
2022-10-25T08:05:26.272Z,2.7
2022-10-25T08:06:41.518Z,3.4
2022-10-25T08:07:56.792Z,6.3
2022-10-25T08:09:12.039Z,5
2022-10-25T08:10:28.272Z,2.6
2022-10-25T08:11:44.529Z,2.3
2022-10-25T08:13:00.757Z,1.5
2022-10-25T08:14:16.996Z,1.6
2022-10-25T08:15:33.242Z,1.1
2022-10-25T08:16:49.485Z,2.5
2022-10-25T08:18:05.714Z,1.2
2022-10-25T08:19:21.955Z,3.1
2022-10-25T08:20:38.188Z,3.4
2022-10-25T08:21:54.436Z,2.3
2022-10-25T08:23:10.670Z,2.3
2022-10-25T08:24:26.905Z,3.2
2022-10-25T08:25:42.169Z,1.8
2022-10-25T08:26:58.409Z,1.5
2022-10-25T08:28:14.644Z,1.8
2022-10-25T08:29:30.898Z,3.6
2022-10-25T08:30:47.132Z,0.9
2022-10-25T08:32:03.374Z,1.6
2022-10-25T08:33:19.612Z,3.2
2022-10-25T08:34:34.865Z,4.4
2022-10-25T08:35:50.126Z,1.6
2022-10-25T08:37:05.387Z,3
2022-10-25T08:38:20.641Z,2.9
2022-10-25T08:39:35.889Z,1.6
2022-10-25T08:40:51.162Z,1.8
2022-10-25T08:42:07.392Z,1.1
2022-10-25T08:43:23.635Z,1.3
2022-10-25T08:44:39.862Z,3.1
2022-10-25T08:45:56.110Z,2.9
2022-10-25T08:47:12.348Z,3.2
2022-10-25T08:48:28.588Z,1.1
2022-10-25T08:49:44.819Z,3.2
2022-10-25T08:51:01.063Z,3.1
2022-10-25T08:52:17.309Z,3.6
2022-10-25T08:53:33.537Z,3.8
2022-10-25T08:54:49.775Z,2.4
2022-10-25T08:56:06.015Z,0.7
2022-10-25T08:57:21.279Z,4.2
2022-10-25T08:59:53.767Z,4.6
2022-10-25T09:01:09.000Z,1.6
2022-10-25T09:02:26.229Z,6.1
2022-10-25T09:03:42.485Z,1.7
2022-10-25T09:04:58.724Z,6.7
2022-10-25T09:06:14.963Z,1.6
2022-10-25T09:07:30.221Z,1.4
2022-10-25T09:08:45.460Z,1.8
2022-10-25T09:10:01.720Z,2.5
2022-10-25T09:11:17.945Z,1.6
2022-10-25T09:12:34.195Z,5.2
2022-10-25T09:13:50.423Z,3.4
2022-10-25T09:15:06.663Z,1.9
2022-10-25T09:16:22.901Z,0.8
2022-10-25T09:17:39.148Z,2.2
2022-10-25T09:18:55.383Z,5.7
2022-10-25T09:20:11.631Z,3.6
2022-10-25T09:21:27.858Z,1.3
2022-10-25T09:22:44.100Z,1.6
2022-10-25T09:24:00.335Z,2.5
2022-10-25T09:25:15.601Z,1.3
2022-10-25T09:26:31.843Z,2.2
2022-10-25T09:27:48.077Z,5.9
2022-10-25T09:29:04.307Z,1.6
2022-10-25T09:30:20.547Z,3.4
2022-10-25T09:31:36.796Z,1
2022-10-25T09:32:53.031Z,2.4
2022-10-25T09:34:08.296Z,0.9
2022-10-25T09:35:23.556Z,3.6
2022-10-25T09:36:38.808Z,4.2
2022-10-25T09:37:54.054Z,1.8
2022-10-25T09:39:10.308Z,2.7
2022-10-25T09:40:26.542Z,2.3
2022-10-25T09:41:42.772Z,2.6
2022-10-25T09:42:59.025Z,2.1
2022-10-25T09:44:15.253Z,3
2022-10-25T09:45:31.500Z,3.3
2022-10-25T09:46:47.732Z,2.3
2022-10-25T09:48:03.978Z,1.4
2022-10-25T09:49:20.217Z,1.8
2022-10-25T09:50:36.453Z,3.7
2022-10-25T09:51:52.698Z,2
2022-10-25T09:53:08.937Z,2.8
2022-10-25T09:54:24.181Z,3
2022-10-25T09:55:40.423Z,2
2022-10-25T09:56:56.662Z,1.6
2022-10-25T09:58:12.905Z,2.8
2022-10-25T09:59:29.151Z,1.8
2022-10-25T10:00:45.376Z,1.3
2022-10-25T10:02:01.623Z,2.1
2022-10-25T10:03:16.884Z,1.5
2022-10-25T10:04:32.147Z,2
2022-10-25T10:05:48.373Z,4.9
2022-10-25T10:07:04.629Z,2.8
2022-10-25T10:08:20.862Z,2.6
2022-10-25T10:09:37.109Z,4.3
2022-10-25T10:10:53.329Z,2.3
2022-10-25T10:12:09.570Z,3.2
2022-10-25T10:13:25.824Z,3.2
2022-10-25T10:14:42.053Z,2.7
2022-10-25T10:15:58.303Z,3.4
2022-10-25T10:17:14.527Z,2.9
2022-10-25T10:18:30.775Z,5.1
2022-10-25T10:19:47.019Z,1.8
2022-10-25T10:21:02.260Z,2.9
2022-10-25T10:22:18.513Z,1.2
2022-10-25T10:23:34.756Z,1.6
2022-10-25T10:24:50.976Z,3.2
2022-10-25T10:26:07.219Z,1.6
2022-10-25T10:27:23.462Z,2.2
2022-10-25T10:28:39.707Z,2.1
2022-10-25T10:29:55.926Z,1.8
2022-10-25T10:31:12.176Z,1
2022-10-25T10:32:28.424Z,2.6
2022-10-25T10:33:44.655Z,5.3
2022-10-25T10:35:00.886Z,2.6
2022-10-25T10:36:17.130Z,3.7
2022-10-25T10:37:32.391Z,3
2022-10-25T10:38:48.634Z,1.1
2022-10-25T10:40:04.869Z,3.2
2022-10-25T10:41:21.099Z,1.1
2022-10-25T10:42:37.347Z,1.3
2022-10-25T10:43:53.598Z,2.3
2022-10-25T10:45:09.830Z,1.9
2022-10-25T10:46:26.073Z,1.9
2022-10-25T10:47:42.311Z,1.9
2022-10-25T10:48:58.559Z,1.5
2022-10-25T10:50:14.778Z,1.3
2022-10-25T10:51:31.010Z,1.6
2022-10-25T10:52:47.260Z,1.3
2022-10-25T10:54:02.515Z,1.5
2022-10-25T10:55:18.754Z,2.1
2022-10-25T10:56:34.987Z,0.9
2022-10-25T10:57:51.220Z,2.2
2022-10-25T10:59:07.469Z,2.9
2022-10-25T11:00:23.718Z,4.2
2022-10-25T11:01:39.954Z,0.8
2022-10-25T11:02:56.192Z,2.6
2022-10-25T11:04:12.432Z,1.7
2022-10-25T11:05:28.672Z,5.1
2022-10-25T11:06:44.913Z,2
2022-10-25T11:08:00.157Z,3.1
2022-10-25T11:09:16.386Z,4.6
2022-10-25T11:10:32.652Z,2.9
2022-10-25T11:11:48.887Z,1.8
2022-10-25T11:13:05.127Z,1.1
2022-10-25T11:14:21.357Z,4.9
2022-10-25T11:15:37.597Z,1.7
2022-10-25T11:16:53.841Z,2.5
2022-10-25T11:18:10.087Z,2.3
2022-10-25T11:19:26.315Z,5.2
2022-10-25T11:20:42.554Z,0.8
2022-10-25T11:21:58.806Z,2.8
2022-10-25T11:23:15.046Z,2.8
2022-10-25T11:24:30.275Z,2.4
2022-10-25T11:25:46.541Z,2.7
2022-10-25T11:27:02.763Z,1.5
2022-10-25T11:28:18.991Z,2.5
2022-10-25T11:29:35.243Z,3.6
2022-10-25T11:30:51.496Z,3.5
2022-10-25T11:32:07.709Z,2.5
2022-10-25T11:34:40.210Z,0.5
2022-10-25T11:35:56.451Z,2.2
2022-10-25T11:37:12.683Z,1.4
2022-10-25T11:38:28.918Z,5.7
2022-10-25T11:39:45.149Z,0.8
2022-10-25T11:41:00.422Z,3.4
2022-10-25T11:42:16.647Z,5.7
2022-10-25T11:43:32.903Z,0.8
2022-10-25T11:44:49.122Z,5.1
2022-10-25T11:46:05.367Z,4.1
2022-10-25T11:47:21.617Z,1
2022-10-25T11:48:37.843Z,3.7
2022-10-25T11:49:54.074Z,2.3
2022-10-25T11:51:10.321Z,2
2022-10-25T11:52:26.569Z,3
2022-10-25T11:53:42.812Z,1.9
2022-10-25T11:54:59.035Z,1.2
2022-10-25T11:56:15.286Z,1.1
2022-10-25T11:57:30.549Z,1.5
2022-10-25T11:58:46.772Z,2.7
2022-10-25T12:00:02.999Z,1.9
2022-10-25T12:01:19.267Z,1.9
2022-10-25T12:02:35.481Z,1.7
2022-10-25T12:03:51.736Z,2.4
2022-10-25T12:05:07.973Z,1
2022-10-25T12:06:24.211Z,2.7
2022-10-25T12:07:40.464Z,0.6
2022-10-25T12:08:56.685Z,1.9
2022-10-25T12:10:12.929Z,4
2022-10-25T12:11:29.153Z,1.8
2022-10-25T12:12:45.400Z,1.4
2022-10-25T12:14:01.646Z,4.1
2022-10-25T12:15:16.888Z,1
2022-10-25T12:16:33.139Z,2.4
2022-10-25T12:17:49.377Z,1.6
2022-10-25T12:19:05.628Z,2
2022-10-25T12:20:21.848Z,1.2
2022-10-25T12:21:38.101Z,2
2022-10-25T12:22:54.346Z,0.8
2022-10-25T12:24:10.582Z,1.3
2022-10-25T12:25:26.830Z,2.6
2022-10-25T12:26:43.063Z,0.5
2022-10-25T12:27:59.302Z,1.2
2022-10-25T12:29:15.531Z,3.8
2022-10-25T12:30:31.778Z,1.6
2022-10-25T12:31:47.033Z,2.2
2022-10-25T12:33:03.281Z,2.2
2022-10-25T12:34:19.517Z,1.2
2022-10-25T12:35:35.736Z,1
2022-10-25T12:36:51.971Z,2.1
2022-10-25T12:38:08.211Z,1.8
2022-10-25T12:39:24.466Z,3.6
2022-10-25T12:40:40.715Z,2.3
2022-10-25T12:41:56.949Z,2.9
2022-10-25T12:43:13.171Z,1.9
2022-10-25T12:44:29.419Z,2
2022-10-25T12:45:45.657Z,2.6
2022-10-25T12:47:01.901Z,3
2022-10-25T12:48:17.148Z,2.1
2022-10-25T12:49:33.383Z,2.9
2022-10-25T12:50:49.628Z,0.8
2022-10-25T12:52:05.884Z,2.3
2022-10-25T12:53:22.106Z,1.6
2022-10-25T12:54:38.349Z,1.4
2022-10-25T12:55:54.584Z,1
2022-10-25T12:57:10.826Z,1
2022-10-25T12:58:27.076Z,2.1
2022-10-25T12:59:43.311Z,2.1
2022-10-25T13:00:59.548Z,2.5
2022-10-25T13:02:15.790Z,3.9
2022-10-25T13:03:32.032Z,3
2022-10-25T13:04:47.267Z,1.3
2022-10-25T13:06:03.510Z,2.2
2022-10-25T13:07:19.765Z,0.5
2022-10-25T13:08:36.003Z,1.8
2022-10-25T13:09:52.240Z,1.4
2022-10-25T13:11:08.467Z,1.3
2022-10-25T13:12:24.716Z,1.1
2022-10-25T13:13:40.957Z,1.9
2022-10-25T13:16:13.424Z,2.4
2022-10-25T13:17:29.678Z,2.8
2022-10-25T13:18:45.912Z,3.8
2022-10-25T13:20:02.135Z,2
2022-10-25T13:21:17.390Z,1.7
2022-10-25T13:22:33.641Z,2.7
2022-10-25T13:23:49.884Z,3.7
2022-10-25T13:25:06.126Z,2.2
2022-10-25T13:26:22.366Z,2.4
2022-10-25T13:27:38.582Z,3.3
2022-10-25T13:28:54.835Z,2.7
2022-10-25T13:30:11.086Z,5.4
2022-10-25T13:31:27.310Z,2.2
2022-10-25T13:32:43.565Z,1.5
2022-10-25T13:33:59.790Z,2.9
2022-10-25T13:35:16.035Z,1.2
2022-10-25T13:36:32.272Z,1.9
2022-10-25T13:37:47.541Z,1.5
2022-10-25T13:39:03.753Z,1.7
2022-10-25T13:40:20.015Z,4.2
2022-10-25T13:41:36.234Z,3
2022-10-25T13:42:52.478Z,1.3
2022-10-25T13:44:08.716Z,2.5
2022-10-25T13:45:24.969Z,1.9
2022-10-25T13:46:41.199Z,3.2
2022-10-25T13:47:57.432Z,1.7
2022-10-25T13:49:13.674Z,0.7
2022-10-25T13:50:29.907Z,1.5
2022-10-25T13:51:46.146Z,1.3
2022-10-25T13:53:02.405Z,3.9
2022-10-25T13:54:17.636Z,1
2022-10-25T13:55:33.901Z,5.1
2022-10-25T13:56:50.132Z,3.8
2022-10-25T13:58:06.376Z,0.8
2022-10-25T13:59:22.602Z,1.6
2022-10-25T14:00:38.855Z,3.1
2022-10-25T14:01:55.092Z,1.5
2022-10-25T14:03:11.332Z,1
2022-10-25T14:04:27.561Z,5.4
2022-10-25T14:05:43.810Z,2.4
2022-10-25T14:07:00.036Z,2.2
2022-10-25T14:08:16.278Z,1.8
2022-10-25T14:09:32.517Z,4.2
2022-10-25T14:10:47.784Z,4.1
2022-10-25T14:12:04.013Z,3.5
2022-10-25T14:13:20.266Z,1.7
2022-10-25T14:14:36.488Z,2.3
2022-10-25T14:15:52.727Z,3.7
2022-10-25T14:17:08.982Z,1.6
2022-10-25T14:18:25.208Z,1.7
2022-10-25T14:19:41.443Z,1.1
2022-10-25T14:20:57.691Z,2.9
2022-10-25T14:22:13.924Z,3
2022-10-25T14:23:30.166Z,2.2
2022-10-25T14:24:46.411Z,1.8
2022-10-25T14:26:02.651Z,1.5
2022-10-25T14:27:17.909Z,2
2022-10-25T14:28:34.143Z,2.4
2022-10-25T14:29:50.383Z,2.1
2022-10-25T14:31:06.634Z,2.2
2022-10-25T14:32:22.855Z,2.8
2022-10-25T14:33:39.109Z,3.4
2022-10-25T14:34:55.335Z,0.8
2022-10-25T14:36:11.579Z,0.9
2022-10-25T14:37:27.805Z,2.8
2022-10-25T14:38:44.065Z,2.8
2022-10-25T14:40:00.303Z,1.6
2022-10-25T14:41:16.540Z,3.9
2022-10-25T14:42:32.769Z,6.1
2022-10-25T14:43:48.024Z,1.3
2022-10-25T14:45:04.253Z,0.9
2022-10-25T14:46:20.501Z,3.4
2022-10-25T14:47:36.753Z,0.8
2022-10-25T14:48:52.985Z,0.7
2022-10-25T14:50:09.233Z,2.2
2022-10-25T14:51:25.466Z,3
2022-10-25T14:52:41.698Z,1.8
2022-10-25T14:53:57.950Z,3.5
2022-10-25T14:55:14.180Z,2.8
2022-10-25T14:56:30.418Z,3.4
2022-10-25T14:57:46.663Z,1.3
2022-10-25T14:59:02.896Z,3.6
2022-10-25T15:00:18.142Z,3.4
2022-10-25T15:01:34.404Z,2.3
2022-10-25T15:02:50.636Z,2
2022-10-25T15:04:06.885Z,2.2
2022-10-25T15:05:23.107Z,3.6
2022-10-25T15:06:39.352Z,3.1
2022-10-25T15:07:55.599Z,4.1
2022-10-25T15:09:11.828Z,3.1
2022-10-25T15:10:28.065Z,1.1
2022-10-25T15:11:44.320Z,4.2
2022-10-25T15:13:00.549Z,1.6
2022-10-25T15:14:16.781Z,1.3
2022-10-25T15:15:33.020Z,2.5
2022-10-25T15:16:48.292Z,1.2
2022-10-25T15:18:04.528Z,1.5
2022-10-25T15:19:20.754Z,1.7
2022-10-25T15:20:37.005Z,2.6
2022-10-25T15:21:53.246Z,1.2
2022-10-25T15:23:08.494Z,2.4
2022-10-25T15:24:24.744Z,3
2022-10-25T15:25:40.973Z,5.5
2022-10-25T15:26:57.219Z,2.1
2022-10-25T15:28:13.448Z,2.6
2022-10-25T15:29:29.708Z,2.6
2022-10-25T15:30:45.934Z,5.7
2022-10-25T15:32:02.182Z,2.5
2022-10-25T15:33:18.406Z,2.4
2022-10-25T15:34:34.659Z,2
2022-10-25T15:35:50.888Z,1.9
2022-10-25T15:37:07.113Z,1.3
2022-10-25T15:38:23.369Z,2.1
2022-10-25T15:39:38.631Z,2.6
2022-10-25T15:40:54.873Z,3.3
2022-10-25T15:42:11.108Z,2.8
2022-10-25T15:43:27.333Z,2.2
2022-10-25T15:44:43.574Z,2.4
2022-10-25T15:45:59.809Z,3
2022-10-25T15:47:16.067Z,2.8
2022-10-25T15:48:32.293Z,3.1
2022-10-25T15:49:48.545Z,4.1
2022-10-25T15:51:04.772Z,3.3
2022-10-25T15:52:21.011Z,4
2022-10-25T15:53:37.259Z,3.2
2022-10-25T15:54:53.502Z,1.8
2022-10-25T15:56:08.764Z,2.5
2022-10-25T15:57:24.993Z,3.3
2022-10-25T15:58:41.220Z,5
2022-10-25T15:59:57.468Z,3.2
2022-10-25T16:01:13.705Z,3
2022-10-25T16:03:46.180Z,5.3
2022-10-25T16:06:18.664Z,3.3
2022-10-25T16:07:34.902Z,3.2
2022-10-25T16:08:51.140Z,4.3
2022-10-25T16:10:07.364Z,3.8
2022-10-25T16:11:23.625Z,4.3
2022-10-25T16:13:55.120Z,4.2
2022-10-25T16:15:11.355Z,4
2022-10-25T16:16:27.582Z,4.6
2022-10-25T16:17:42.854Z,4
2022-10-25T16:18:58.106Z,2.5
2022-10-25T16:20:14.345Z,3.4
2022-10-25T16:21:30.591Z,3
2022-10-25T16:22:46.833Z,3.5
2022-10-25T16:24:03.068Z,2.7
2022-10-25T16:25:19.295Z,2.6
2022-10-25T16:26:35.539Z,2.5
2022-10-25T16:27:51.776Z,5.3
2022-10-25T16:29:08.014Z,4.9
2022-10-25T16:30:24.257Z,5.4
2022-10-25T16:31:39.514Z,2.8
2022-10-25T16:32:54.786Z,3.8
2022-10-25T16:34:11.022Z,5.2
2022-10-25T16:35:27.250Z,4.2
2022-10-25T16:36:43.500Z,4.9
2022-10-25T16:37:59.732Z,9.4
2022-10-25T16:39:15.974Z,6.5
2022-10-25T16:40:32.220Z,6.8
2022-10-25T16:41:48.445Z,6.7
2022-10-25T16:43:04.686Z,6.1
2022-10-25T16:44:20.936Z,5.8
2022-10-25T16:45:37.173Z,7.8
2022-10-25T16:46:53.402Z,3.9
2022-10-25T16:48:09.651Z,5.3
2022-10-25T16:49:24.897Z,4.1
2022-10-25T16:50:41.154Z,3.8
2022-10-25T16:51:57.390Z,5.8
2022-10-25T16:53:13.613Z,3.3
2022-10-25T16:54:29.858Z,3.7
2022-10-25T16:55:46.108Z,4.9
2022-10-25T16:57:02.349Z,4
2022-10-25T16:58:18.590Z,2.7
2022-10-25T16:59:34.825Z,3.6
2022-10-25T17:00:51.065Z,3.9
2022-10-25T17:02:07.299Z,4.9
2022-10-25T17:03:23.531Z,4
2022-10-25T17:04:39.774Z,4.9
2022-10-25T17:05:55.031Z,3.4
2022-10-25T17:07:11.261Z,3.7
2022-10-25T17:08:27.508Z,4.3
2022-10-25T17:09:43.746Z,6.7
2022-10-25T17:10:59.995Z,4.9
2022-10-25T17:12:16.237Z,3
2022-10-25T17:13:32.472Z,4.8
2022-10-25T17:14:48.711Z,6.6
2022-10-25T17:16:04.958Z,3.4
2022-10-25T17:17:21.184Z,4.3
2022-10-25T17:18:37.418Z,4.2
2022-10-25T17:19:53.671Z,4.7
2022-10-25T17:21:09.907Z,6.4
2022-10-25T17:22:25.157Z,4.9
2022-10-25T17:23:41.402Z,5.3
2022-10-25T17:24:57.632Z,5.2
2022-10-25T17:26:13.888Z,7.1
2022-10-25T17:27:30.113Z,9
2022-10-25T17:28:46.366Z,8.5
2022-10-25T17:30:02.589Z,6.7
2022-10-25T17:31:18.837Z,7.5
2022-10-25T17:32:35.084Z,8.8
2022-10-25T17:33:51.312Z,5.5
2022-10-25T17:35:07.548Z,5.5
2022-10-25T17:36:23.791Z,5.6
2022-10-25T17:37:40.028Z,5.3
2022-10-25T17:38:55.285Z,4.6
2022-10-25T17:40:11.533Z,4.7
2022-10-25T17:41:27.768Z,3.2
2022-10-25T17:42:43.996Z,8.3
2022-10-25T17:44:00.240Z,5.6
2022-10-25T17:45:16.483Z,4
2022-10-25T17:46:32.715Z,5.5
2022-10-25T17:47:48.954Z,4.6
2022-10-25T17:49:05.212Z,7
2022-10-25T17:50:21.453Z,6
2022-10-25T17:51:37.686Z,3
2022-10-25T17:52:53.912Z,5
2022-10-25T17:54:10.158Z,3.5
2022-10-25T17:55:25.406Z,4.5
2022-10-25T17:56:41.667Z,7.4
2022-10-25T17:57:57.898Z,7.1
2022-10-25T17:59:14.134Z,8.9
2022-10-25T18:00:30.367Z,5.4
2022-10-25T18:01:46.608Z,4.6
2022-10-25T18:03:02.859Z,4.5
2022-10-25T18:04:19.091Z,4.3
2022-10-25T18:05:35.328Z,7.4
2022-10-25T18:06:51.572Z,4.3
2022-10-25T18:08:07.804Z,4.8
2022-10-25T18:09:24.096Z,6.8
2022-10-25T18:10:40.391Z,7.1
2022-10-25T18:11:55.717Z,8.8
2022-10-25T18:13:12.015Z,10.1
2022-10-25T18:14:28.303Z,9.5
2022-10-25T18:15:44.592Z,12.3
2022-10-25T18:17:00.880Z,14.1
2022-10-25T18:18:17.171Z,12
2022-10-25T18:19:33.484Z,11.9
2022-10-25T18:20:49.766Z,12.3
2022-10-25T18:22:06.074Z,14
2022-10-25T18:23:22.352Z,13.5
2022-10-25T18:24:38.642Z,17.5
2022-10-25T18:25:54.943Z,13.6
2022-10-25T18:27:11.249Z,11.6
2022-10-25T18:28:26.546Z,13.5
2022-10-25T18:29:42.834Z,15.4
2022-10-25T18:30:59.142Z,15.8
2022-10-25T18:32:15.429Z,12.4
2022-10-25T18:33:31.724Z,13.1
2022-10-25T18:34:48.031Z,14.3
2022-10-25T18:36:04.313Z,9.5
2022-10-25T18:37:20.611Z,6
2022-10-25T18:38:36.904Z,5.4
2022-10-25T18:39:53.191Z,9.6
2022-10-25T18:41:09.501Z,5.5
2022-10-25T18:42:25.784Z,6.4
2022-10-25T18:43:42.078Z,7
2022-10-25T18:44:57.392Z,5.8
2022-10-25T18:46:13.684Z,4.9
2022-10-25T18:47:29.967Z,4.9
2022-10-25T18:48:46.263Z,5.7
2022-10-25T18:50:02.559Z,5.8
2022-10-25T18:51:18.857Z,6.1
2022-10-25T18:52:35.148Z,3.6
2022-10-25T18:53:51.446Z,3.2
2022-10-25T18:55:07.736Z,8.2
2022-10-25T18:56:24.027Z,11.3
2022-10-25T18:57:40.317Z,8.2
2022-10-25T18:58:56.615Z,14.2
2022-10-25T19:00:12.927Z,13.2
2022-10-25T19:01:28.225Z,12.6
2022-10-25T19:02:44.512Z,8.7
2022-10-25T19:04:00.811Z,7.5